Tiempo atmosférico en la estación meteorológica de Almendralejo, Badajoz (371 m.)



Fecha
DESCASC
Temp. máxima en grados centígrados (hora)
DESCASC
Temp. mínima en grados centígrados (hora)
DESCASC
Temp. media en grados centígrados
DESCASC
Racha de viento máxima en m/sg (hora)
DESCASC
Velocidad máxima media en intervalos de 10 minutos(hora)
DESCASC
Precipitaciones diarias en mm
DESCASC
Precipitaciones de 00:00 a 06:00 en mm
DESCASC
Precipitaciones de 06:00 a 12:00 en mm
DESCASC
Precipitaciones de 12:00 a 18:00 en mm
DESCASC
Precipitaciones de 18:00 a 24:00 en mm
DESCASC
17-09-2020 28.7 (15:50) 19.2 (08:00) 24 15.28 (19:00) 10.56 (19:00) 0 0 0 0 0
16-09-2020 30.2 (15:30) 15.5 (08:10) 22.9 7.22 (15:50) 4.17 (19:40) 0 0 0 0 0
15-09-2020 31.4 (17:20) 15.8 (07:40) 23.6 8.33 (17:50) 4.44 (20:00) 0 0 0 0 0
14-09-2020 33 (15:00) 20.8 (00:00) 26.9 10 (15:00) 6.94 (18:50) 0 0 0 0 0
13-09-2020 36.1 (16:50) 21.6 (00:00) 28.8 11.39 (15:20) 7.5 (15:20) 0 0 0 0 0
12-09-2020 35.4 (16:30) 18.7 (00:00) 27.1 8.06 (15:10) 4.72 (15:40) 0 0 0 0 0
11-09-2020 35.2 (15:50) 17.6 (00:00) 26.4 6.94 (17:00) 3.89 (17:10) 0 0 0 0 0
10-09-2020 33.7 (18:20) 16.9 (00:00) 25.3 6.67 (17:20) 4.17 (17:20) 0 0 0 0 0
09-09-2020 31.7 (16:50) 15.8 (00:00) 23.8 6.67 (18:00) 3.33 (18:10) 0 0 0 0 0
08-09-2020 31.7 (16:40) 18 (00:00) 24.9 8.06 (16:50) 5.56 (19:20) 0 0 0 0 0
07-09-2020 35.2 (16:40) 21 (06:10) 28.1 10 (18:30) 5.83 (19:00) 0 0 0 0 0
06-09-2020 35.9 (16:30) 18.9 (00:00) 27.4 6.94 (01:30) 4.17 (08:00) 0 0 0 0 0
05-09-2020 35.5 (17:00) 18.2 (00:00) 26.9 8.61 (17:10) 4.72 (17:50) 0 0 0 0 0
04-09-2020 34.5 (17:00) 18.7 (00:00) 26.6 7.78 (15:10) 4.17 (06:50) 0 0 0 0 0
03-09-2020 35.2 (16:50) 16.6 (00:00) 25.9 10.56 (17:40) 5 (17:00) 0 0 0 0 0
02-09-2020 33.4 (16:50) 14.1 (00:00) 23.8 8.33 (00:10) 5.83 (00:10) 0 0 0 0 0
01-09-2020 32.4 (15:40) 16.9 (00:00) 24.7 10 (22:20) 6.11 (23:00) 0 0 0 0 0
31-08-2020 31.4 (17:10) 13.2 (00:00) 22.3 6.39 (13:50) 3.61 (17:20) 0 0 0 0 0
30-08-2020 28.1 (16:50) 13.7 (00:00) 20.9 9.44 (14:40) 3.89 (17:20) 0 0 0 0 0
29-08-2020 26.8 (17:50) 13.6 (00:00) 20.2 12.78 (17:30) 7.5 (16:20) 0 0 0 0 0
28-08-2020 31.8 (16:10) 17.9 (00:00) 24.8 13.61 (15:50) 8.61 (18:30) 0 0 0 0 0
27-08-2020 36.7 (16:20) 19.6 (00:00) 28.2 11.67 (21:50) 8.33 (21:50) 0 0 0 0 0
26-08-2020 38.4 (18:10) 19 (00:00) 28.7 10 (19:10) 5.83 (18:30) 0 0 0 0 0
25-08-2020 38 (17:40) 19.9 (00:00) 28.9 8.06 (19:30) 4.72 (00:50) 0 0 0 0 0
24-08-2020 37.6 (18:30) 17.2 (00:00) 27.4 8.33 (19:40) 5.28 (19:40) 0 0 0 0 0
23-08-2020 34.7 (17:40) 17.1 (00:00) 25.9 8.33 (14:20) 4.72 (23:59) 0 0 0 0 0
22-08-2020 33.6 (17:30) 17 (00:00) 25.3 8.06 (19:50) 3.89 (15:30) 0 0 0 0 0
21-08-2020 32.5 (17:40) 18.7 (00:00) 25.6 14.44 (15:10) 6.39 (17:20) 0 0 0 0 0

Gráficas

Temp. máximas Temp. mínimas Temp. medias Precipitaciones Rachas de viento máximas Velocidades máximas media en intervalos de 10 minutos

Datos horarios

Fecha y hora oficial Temperatura (ºC) Velocidad del viento (km/h) Dirección del viento Racha (km/h) Dirección de racha Precipitación (mm) Presión (hPa) Tendencia (hPa) Humedad (%)
2020-09-19 23:00:00 19.4 8 Noroeste 19 Noroeste 0 -- -- 71
2020-09-19 22:00:00 20.6 8 Noroeste 22 Oeste 0 -- -- 67
2020-09-19 21:00:00 21.4 13 Oeste 20 Noroeste 0 -- -- 64
2020-09-19 20:00:00 22.5 9 Noroeste 19 Oeste 0 -- -- 59
2020-09-19 19:00:00 23.6 14 Oeste 28 Oeste 0 -- -- 55
2020-09-19 18:00:00 23.7 14 Noroeste 34 Oeste 0 -- -- 53
2020-09-19 17:00:00 24.4 19 Oeste 31 Oeste 0 -- -- 53
2020-09-19 16:00:00 24.2 19 Oeste 33 Oeste 0 -- -- 55
2020-09-19 15:00:00 23.3 14 Oeste 26 Oeste 0 -- -- 60
2020-09-19 14:00:00 22.4 14 Noroeste 25 Noroeste 0 -- -- 63
2020-09-19 13:00:00 21.8 12 Noroeste 24 Noroeste 0 -- -- 68
2020-09-19 12:00:00 20.9 14 Noroeste 24 Oeste 0 -- -- 69
2020-09-19 11:00:00 19.8 15 Oeste 24 Noroeste 0 -- -- 73
2020-09-19 10:00:00 18.5 10 Oeste 18 Oeste 0 -- -- 82
2020-09-19 09:00:00 16.8 3 Sudoeste 13 Oeste 0 -- -- 88
2020-09-19 08:00:00 16.2 8 Oeste 17 Oeste 0 -- -- 91
2020-09-19 07:00:00 16.3 12 Oeste 18 Oeste 0 -- -- 90
2020-09-19 06:00:00 16.2 7 Sudoeste 14 Sudoeste 0 -- -- 92
2020-09-19 05:00:00 16.5 8 Oeste 24 Sudoeste 0 -- -- 92
2020-09-19 04:00:00 17.1 12 Sudoeste 22 Sudoeste 0 -- -- 88
2020-09-19 03:00:00 17.2 16 Oeste 26 Sudoeste 0 -- -- 85
2020-09-19 02:00:00 17.1 13 Sudoeste 27 Sudoeste 0 -- -- 85
2020-09-19 01:00:00 17.5 22 Oeste 35 Sudoeste 0 -- -- 83
2020-09-19 00:00:00 17.8 21 Oeste 36 Sudoeste 0 -- -- 85
2020-09-18 23:00:00 17.7 22 Sudoeste 33 Oeste 0 -- -- 87
2020-09-18 22:00:00 17.5 22 Oeste 35 Oeste 0.8 -- -- 90
2020-09-18 21:00:00 17.6 17 Sudoeste 41 Sudoeste 0.8 -- -- 89
2020-09-18 20:00:00 19.4 29 Oeste 58 Sudoeste 0 -- -- 75
2020-09-18 19:00:00 20.6 26 Sudoeste 56 Sudoeste 0 -- -- 72
2020-09-18 18:00:00 21.4 33 Sudoeste 52 Sudoeste 0 -- -- 68
2020-09-18 17:00:00 20.8 26 Sudoeste 46 Sudoeste 0 -- -- 73
2020-09-18 16:00:00 21.2 27 Sudoeste 42 Sudoeste 0 -- -- 73
2020-09-18 15:00:00 18.4 10 Sur 20 Sur 1.2 -- -- 91
2020-09-18 14:00:00 18.3 4 Sudoeste 24 Oeste 7.6 -- -- 90
2020-09-18 13:00:00 18.7 8 Sudoeste 24 Sudoeste 1.2 -- -- 87
2020-09-18 12:00:00 19.9 17 Sur 26 Sudoeste 0 -- -- 76
2020-09-18 11:00:00 19.9 18 Sur 27 Sur 0 -- -- 73
2020-09-18 10:00:00 17.9 12 Sur 21 Sur 0 -- -- 82
2020-09-18 09:00:00 16 9 Sur 14 Sudeste 0 -- -- 88
2020-09-18 08:00:00 15.9 6 Sudeste 9 Sudeste 0 -- -- 94
2020-09-18 07:00:00 16.3 5 Sudeste 12 Sudoeste 0 -- -- 94
2020-09-18 06:00:00 16.7 10 Sudoeste 14 Sudoeste 0 -- -- 92
2020-09-18 05:00:00 16.9 6 Sudoeste 13 Oeste 0 -- -- 91
2020-09-18 04:00:00 17.2 8 Oeste 14 Oeste 0.2 -- -- 89
2020-09-18 03:00:00 17.1 8 Noroeste 19 Noroeste 0 -- -- 91
2020-09-18 02:00:00 17.3 10 Oeste 18 Sudoeste 6.2 -- -- 93
2020-09-18 01:00:00 17.6 6 Sudoeste 28 Oeste 26 -- -- 88
2020-09-18 00:00:00 21.5 12 Sudoeste 23 Sudoeste 0 -- -- 65
2020-09-17 23:00:00 21.9 9 Sudoeste 24 Sudoeste 0 -- -- 65
2020-09-17 22:00:00 22.7 19 Sudoeste 33 Sudoeste 0 -- -- 62
2020-09-17 21:00:00 23.5 18 Oeste 46 Sudoeste 0 -- -- 58
2020-09-17 20:00:00 24.8 30 Oeste 54 Sudoeste 0 -- -- 51
2020-09-17 19:00:00 26.1 38 Sudoeste 55 Sudoeste 0 -- -- 47
2020-09-17 18:00:00 26.8 28 Sudoeste 42 Sudoeste 0 -- -- 49
2020-09-17 17:00:00 27.7 30 Sudoeste 49 Sudoeste 0 -- -- 45
2020-09-17 16:00:00 28.6 25 Sudoeste 41 Sudoeste 0 -- -- 40
2020-09-17 15:00:00 27.6 22 Sur 44 Sudoeste 0 -- -- 41
2020-09-17 14:00:00 25.9 21 Sudoeste 43 Oeste 0 -- -- 51
2020-09-17 13:00:00 24.5 18 Sudoeste 30 Sudoeste 0 -- -- 55
2020-09-17 12:00:00 23.5 14 Sudoeste 26 Sudoeste 0 -- -- 59
2020-09-17 11:00:00 22.4 13 Sudoeste 27 Sudoeste 0 -- -- 63
2020-09-17 10:00:00 21.8 11 Sur 24 Sur 0 -- -- 66
2020-09-17 09:00:00 20.5 11 Sur 18 Sur 0 -- -- 75
2020-09-17 08:00:00 19.2 6 Sudeste 17 Sudoeste 0 -- -- 78
2020-09-17 07:00:00 19.9 12 Sudoeste 20 Sur 0 -- -- 77
2020-09-17 06:00:00 19.7 8 Sur 17 Sur 0 -- -- 73
2020-09-17 05:00:00 19.6 10 Sur 18 Sudoeste 0 -- -- 69
2020-09-17 04:00:00 20.7 10 Sudoeste 16 Sur 0 -- -- 64
2020-09-17 03:00:00 21.4 8 Sudoeste 12 Sudoeste 0 -- -- 61
2020-09-17 02:00:00 21.7 8 Sur 12 Sudoeste 0 -- -- 60
2020-09-17 01:00:00 22.5 7 Sudoeste 9 Sudoeste 0 -- -- 61
2020-09-17 00:00:00 23.6 5 Oeste 12 Noroeste 0 -- -- 55
2020-09-16 23:00:00 24.8 8 Noroeste 14 Noroeste 0 -- -- 52
2020-09-16 22:00:00 25.1 5 Noroeste 17 Noroeste 0 -- -- 51
2020-09-16 21:00:00 26.2 6 Noroeste 19 Sudoeste 0 -- -- 45
2020-09-16 20:00:00 27.3 13 Sudoeste 23 Sudoeste 0 -- -- 38
2020-09-16 19:00:00 28 13 Sudoeste 23 Sudoeste 0 -- -- 34
2020-09-16 18:00:00 28.5 14 Sudoeste 23 Sur 0 -- -- 36
2020-09-16 17:00:00 29.5 12 Sudoeste 23 Sudoeste 0 -- -- 35
2020-09-16 16:00:00 29.9 13 Sur 26 Sudoeste 0 -- -- 35
2020-09-16 15:00:00 29.6 10 Sur 24 Sudeste 0 -- -- 35
2020-09-16 14:00:00 29.1 10 Sur 22 Sudoeste 0 -- -- 38
2020-09-16 13:00:00 27.6 8 Sur 15 Sur 0 -- -- 41
2020-09-16 12:00:00 25.1 8 Sudeste 14 Sudeste 0 -- -- 46
2020-09-16 11:00:00 23.2 9 Sudeste 14 Sudeste 0 -- -- 53
2020-09-16 10:00:00 20.3 6 Sur 11 Sur 0 -- -- 59
2020-09-16 09:00:00 16.9 6 Sudoeste 11 Sudoeste 0 -- -- 68
2020-09-16 08:00:00 15.6 8 Sur 9 Sur 0 -- -- 70
2020-09-16 07:00:00 16.5 2 Oeste 7 Noroeste 0 -- -- 71
2020-09-16 06:00:00 17.8 4 Noroeste 12 Noroeste 0 -- -- 67
2020-09-16 05:00:00 18.7 9 Noroeste 19 Noroeste 0 -- -- 64
2020-09-16 04:00:00 19.1 12 Noroeste 18 Noroeste 0 -- -- 62
2020-09-16 03:00:00 20.2 11 Noroeste 19 Noroeste 0 -- -- 57
2020-09-16 02:00:00 21.2 10 Noroeste 23 Noroeste 0 -- -- 51
2020-09-16 01:00:00 20.9 8 Sudoeste 10 Sudoeste 0 -- -- 47
2020-09-16 00:00:00 23 4 Noroeste 9 Noroeste 0 -- -- 43
2020-09-15 23:00:00 23.8 8 Noroeste 16 Norte 0 -- -- 42
2020-09-15 22:00:00 25.1 10 Norte 19 Norte 0 -- -- 41
2020-09-15 21:00:00 26.5 11 Norte 23 Nordeste 0 -- -- 41
2020-09-15 20:00:00 28 16 Nordeste 25 Norte 0 -- -- 40
2020-09-15 19:00:00 30.5 8 Noroeste 17 Noroeste 0 -- -- 32
2020-09-15 18:00:00 31.2 6 Noroeste 30 Oeste 0 -- -- 31
2020-09-15 17:00:00 30.9 8 Sur 23 Norte 0 -- -- 31
2020-09-15 16:00:00 30.3 12 Sudoeste 27 Sudoeste 0 -- -- 33
2020-09-15 15:00:00 29.3 9 Sur 27 Sur 0 -- -- 36
2020-09-15 14:00:00 27.7 10 Sudoeste 20 Sudoeste 0 -- -- 42
2020-09-15 13:00:00 25.7 6 Sur 18 Sudoeste 0 -- -- 50
2020-09-15 12:00:00 23.9 5 Sudeste 12 Sur 0 -- -- 57
2020-09-15 11:00:00 22.2 3 Noroeste 10 Norte 0 -- -- 65
2020-09-15 10:00:00 20.4 8 Noroeste 13 Noroeste 0 -- -- 72
2020-09-15 09:00:00 17.1 4 Noroeste 5 Oeste 0 -- -- 75
2020-09-15 08:00:00 15.9 4 Oeste 8 Oeste 0 -- -- 79
2020-09-15 07:00:00 16.6 4 Sudoeste 7 Sudoeste 0 -- -- 74
2020-09-15 06:00:00 18.5 4 Noroeste 14 Noroeste 0 -- -- 72
2020-09-15 05:00:00 19 5 Noroeste 15 Noroeste 0 -- -- 70
2020-09-15 04:00:00 19.8 8 Noroeste 17 Noroeste 0 -- -- 64
2020-09-15 03:00:00 20.8 8 Noroeste 16 Noroeste 0 -- -- 59
2020-09-15 02:00:00 22 9 Noroeste 19 Noroeste 0 -- -- 57
2020-09-15 01:00:00 23.3 12 Noroeste 22 Oeste 0 -- -- 57
2020-09-15 00:00:00 23.9 12 Oeste 21 Oeste 0 -- -- 59
2020-09-14 23:00:00 25 13 Oeste 22 Oeste 0 -- -- 54
2020-09-14 22:00:00 26.2 14 Oeste 28 Oeste 0 -- -- 50
2020-09-14 21:00:00 27.6 21 Oeste 32 Oeste 0 -- -- 45
2020-09-14 20:00:00 29 21 Oeste 36 Oeste 0 -- -- 41
2020-09-14 19:00:00 31.5 21 Oeste 36 Oeste 0 -- -- 38
2020-09-14 18:00:00 32.7 21 Oeste 32 Oeste 0 -- -- 34
2020-09-14 17:00:00 32.9 12 Noroeste 30 Oeste 0 -- -- 34
2020-09-14 16:00:00 32.9 19 Oeste 35 Sudoeste 0 -- -- 33
2020-09-14 15:00:00 33 15 Oeste 36 Sudoeste 0 -- -- 31
2020-09-14 14:00:00 31.4 7 Sudoeste 23 Sudoeste 0 -- -- 34
2020-09-14 13:00:00 29.3 10 Sudoeste 26 Sudoeste 0 -- -- 40
2020-09-14 12:00:00 27.5 8 Sur 15 Sur 0 -- -- 45
2020-09-14 11:00:00 25.3 6 Este 14 Este 0 -- -- 53
2020-09-14 10:00:00 22.4 9 Nordeste 13 Nordeste 0 -- -- 69
2020-09-14 09:00:00 21.4 6 Nordeste 12 Este 0 -- -- 72
2020-09-14 08:00:00 20.8 5 Nordeste 10 Este 0 -- -- 72
2020-09-14 07:00:00 20.9 6 Este 10 Nordeste 0 -- -- 71
2020-09-14 06:00:00 21.2 7 Este 10 Este 0 -- -- 69
2020-09-14 05:00:00 21.5 6 Nordeste 9 Este 0 -- -- 67
2020-09-14 04:00:00 22.3 8 Este 12 Nordeste 0 -- -- 64
2020-09-14 03:00:00 22.4 6 Este 9 Nordeste 0 -- -- 60
2020-09-14 02:00:00 23.1 5 Este 9 Sudeste 0 -- -- 56
2020-09-14 01:00:00 24.7 5 Noroeste 16 Oeste 0 -- -- 53
2020-09-14 00:00:00 26 13 Oeste 18 Oeste 0 -- -- 52
2020-09-13 23:00:00 27.1 6 Noroeste 20 Oeste 0 -- -- 37
2020-09-13 22:00:00 28.6 12 Sudoeste 18 Sudoeste 0 -- -- 26
2020-09-13 21:00:00 30.5 10 Sur 22 Sur 0 -- -- 26
2020-09-13 20:00:00 32.5 14 Sur 27 Sur 0 -- -- 24
2020-09-13 19:00:00 34 19 Sur 32 Sur 0 -- -- 22
2020-09-13 18:00:00 34.6 19 Sudoeste 36 Sur 0 -- -- 21
2020-09-13 17:00:00 36 23 Sudoeste 35 Sudoeste 0 -- -- 20
2020-09-13 16:00:00 35.5 21 Sudoeste 41 Sudoeste 0 -- -- 20
2020-09-13 15:00:00 35.4 23 Sur 39 Sur 0 -- -- 19
2020-09-13 14:00:00 33.6 21 Sur 32 Sudoeste 0 -- -- 21
2020-09-13 13:00:00 31.5 18 Sur 32 Sur 0 -- -- 25
2020-09-13 12:00:00 29.4 14 Sur 23 Sudeste 0 -- -- 32
2020-09-13 11:00:00 27 10 Sudeste 20 Este 0 -- -- 38
2020-09-13 10:00:00 23.6 8 Este 16 Sudeste 0 -- -- 41
2020-09-13 09:00:00 21.7 7 Este 12 Este 0 -- -- 41
2020-09-13 08:00:00 22.3 9 Sur 13 Sur 0 -- -- 39
2020-09-13 07:00:00 22.2 9 Sudoeste 11 Sudoeste 0 -- -- 40
2020-09-13 06:00:00 22.1 9 Sudoeste 13 Sudoeste 0 -- -- 41
2020-09-13 05:00:00 23.6 11 Sudoeste 17 Sudoeste 0 -- -- 38
2020-09-13 04:00:00 24.6 12 Sudoeste 16 Sudoeste 0 -- -- 36
2020-09-13 03:00:00 24 6 Sudoeste 16 Sudoeste 0 -- -- 32
2020-09-13 02:00:00 25 12 Sudoeste 16 Sudoeste 0 -- -- 30
2020-09-13 01:00:00 26.5 10 Sudoeste 14 Sudoeste 0 -- -- 30
2020-09-13 00:00:00 27.3 9 Sudeste 12 Sur 0 -- -- 29
2020-09-12 23:00:00 28.4 11 Sudoeste 16 Sudoeste 0 -- -- 29
2020-09-12 22:00:00 29 7 Este 11 Este 0 -- -- 30
2020-09-12 21:00:00 30.6 8 Este 15 Este 0 -- -- 28
2020-09-12 20:00:00 32.6 8 Este 20 Este 0 -- -- 26
2020-09-12 19:00:00 34.4 9 Sur 23 Sur 0 -- -- 22
2020-09-12 18:00:00 34.6 11 Sur 23 Sudoeste 0 -- -- 21
2020-09-12 17:00:00 34.8 13 Sur 25 Sudeste 0 -- -- 22
2020-09-12 16:00:00 35.3 11 Sur 29 Sur 0 -- -- 21
2020-09-12 15:00:00 35.1 13 Sur 27 Sur 0 -- -- 22
2020-09-12 14:00:00 34.4 16 Sur 28 Sudeste 0 -- -- 23
2020-09-12 13:00:00 33 16 Sur 26 Sur 0 -- -- 24
2020-09-12 12:00:00 31.5 12 Sur 22 Sur 0 -- -- 27
2020-09-12 11:00:00 28.4 14 Sur 23 Sur 0 -- -- 33
2020-09-12 10:00:00 23.5 12 Sudeste 17 Sudeste 0 -- -- 38
2020-09-12 09:00:00 20 10 Sur 17 Sur 0 -- -- 47
2020-09-12 08:00:00 18.8 13 Sur 16 Sur 0 -- -- 49
2020-09-12 07:00:00 19.6 10 Sudoeste 12 Sur 0 -- -- 47
2020-09-12 06:00:00 19.6 10 Sur 14 Sur 0 -- -- 44
2020-09-12 05:00:00 20.3 8 Sudoeste 10 Sudoeste 0 -- -- 46
2020-09-12 04:00:00 21 4 Oeste 9 Oeste 0 -- -- 46
2020-09-12 03:00:00 23.2 10 Oeste 14 Noroeste 0 -- -- 41
2020-09-12 02:00:00 24.3 12 Noroeste 17 Noroeste 0 -- -- 39
2020-09-12 01:00:00 25.7 13 Noroeste 24 Noroeste 0 -- -- 32
2020-09-12 00:00:00 26 5 Oeste 13 Oeste 0 -- -- 28
2020-09-11 23:00:00 27.5 4 Nordeste 6 Norte 0 -- -- 27
2020-09-11 22:00:00 28.4 5 Norte 9 Norte 0 -- -- 24
2020-09-11 21:00:00 29.7 5 Nordeste 15 Nordeste 0 -- -- 23
2020-09-11 20:00:00 32.4 12 Este 18 Nordeste 0 -- -- 20
2020-09-11 19:00:00 33.1 10 Nordeste 21 Nordeste 0 -- -- 19
2020-09-11 18:00:00 33.8 5 Este 21 Nordeste 0 -- -- 20
2020-09-11 17:00:00 33.8 13 Nordeste 25 Nordeste 0 -- -- 20
2020-09-11 16:00:00 34.9 8 Nordeste 23 Nordeste 0 -- -- 19
2020-09-11 15:00:00 34.1 5 Nordeste 19 Nordeste 0 -- -- 20
2020-09-11 14:00:00 33.5 6 Sur 13 Sur 0 -- -- 21
2020-09-11 13:00:00 31.6 8 Sudeste 18 Sur 0 -- -- 25
2020-09-11 12:00:00 28.6 7 Sudeste 12 Sudeste 0 -- -- 30
2020-09-11 11:00:00 27.1 3 Nordeste 6 Nordeste 0 -- -- 35
2020-09-11 10:00:00 23.5 3 Sur 8 Sudoeste 0 -- -- 40
2020-09-11 09:00:00 20.3 3 Sudeste 6 Norte 0 -- -- 43
2020-09-11 08:00:00 18 6 Noroeste 10 Sudoeste 0 -- -- 48
2020-09-11 07:00:00 18.3 8 Sudoeste 13 Sudoeste 0 -- -- 47
2020-09-11 06:00:00 18.9 4 Oeste 12 Sur 0 -- -- 47
2020-09-11 05:00:00 20.1 6 Oeste 11 Oeste 0 -- -- 45
2020-09-11 04:00:00 20.2 9 Oeste 12 Oeste 0 -- -- 43
2020-09-11 03:00:00 20.8 11 Oeste 13 Oeste 0 -- -- 39
2020-09-11 02:00:00 22.2 8 Oeste 17 Oeste 0 -- -- 32
2020-09-11 01:00:00 23.2 4 Sudoeste 7 Sudoeste 0 -- -- 27
2020-09-11 00:00:00 26.1 7 Nordeste 10 Norte 0 -- -- 26
2020-09-10 23:00:00 27.2 5 Norte 6 Norte 0 -- -- 24
2020-09-10 22:00:00 27.9 4 Norte 8 Norte 0 -- -- 23
2020-09-10 21:00:00 29.1 6 Noroeste 9 Norte 0 -- -- 22
2020-09-10 20:00:00 31.3 4 Norte 14 Norte 0 -- -- 19
2020-09-10 19:00:00 32.8 9 Norte 22 Norte 0 -- -- 19
2020-09-10 18:00:00 33.4 8 Norte 24 Norte 0 -- -- 19
2020-09-10 17:00:00 33.5 6 Este 22 Nordeste 0 -- -- 21
2020-09-10 16:00:00 32.4 9 Nordeste 22 Nordeste 0 -- -- 22
2020-09-10 15:00:00 33.3 6 Nordeste 23 Norte 0 -- -- 22
2020-09-10 14:00:00 32.2 4 Oeste 14 Norte 0 -- -- 23
2020-09-10 13:00:00 30.7 6 Este 12 Nordeste 0 -- -- 26
2020-09-10 12:00:00 28.2 3 Oeste 11 Nordeste 0 -- -- 35
2020-09-10 11:00:00 25.1 8 Norte 15 Norte 0 -- -- 44
2020-09-10 10:00:00 22.8 6 Norte 9 Norte 0 -- -- 48
2020-09-10 09:00:00 19.2 3 Noroeste 6 Sudoeste 0 -- -- 56
2020-09-10 08:00:00 17 6 Sudoeste 8 Sudoeste 0 -- -- 60
2020-09-10 07:00:00 17.3 8 Sudoeste 9 Sudoeste 0 -- -- 61
2020-09-10 06:00:00 18.3 4 Sudoeste 8 Noroeste 0 -- -- 58
2020-09-10 05:00:00 19.5 6 Oeste 9 Oeste 0 -- -- 58
2020-09-10 04:00:00 20.8 6 Noroeste 12 Oeste 0 -- -- 54
2020-09-10 03:00:00 21.2 10 Noroeste 13 Oeste 0 -- -- 49
2020-09-10 02:00:00 22.4 10 Noroeste 16 Noroeste 0 -- -- 42
2020-09-10 01:00:00 23.6 6 Oeste 8 Oeste 0 -- -- 37
2020-09-10 00:00:00 25.1 5 Norte 10 Noroeste 0 -- -- 36
2020-09-09 23:00:00 25.6 6 Norte 9 Norte 0 -- -- 32
2020-09-09 22:00:00 26.1 4 Nordeste 5 Nordeste 0 -- -- 31
2020-09-09 21:00:00 27.7 3 Sudeste 12 Norte 0 -- -- 29
2020-09-09 20:00:00 29.6 7 Norte 23 Norte 0 -- -- 26
2020-09-09 19:00:00 30.9 10 Nordeste 23 Norte 0 -- -- 26
2020-09-09 18:00:00 31.4 12 Nordeste 24 Nordeste 0 -- -- 27
2020-09-09 17:00:00 31.4 9 Norte 22 Nordeste 0 -- -- 27
2020-09-09 16:00:00 31 8 Nordeste 21 Nordeste 0 -- -- 30
2020-09-09 15:00:00 30.6 8 Nordeste 17 Nordeste 0 -- -- 36
2020-09-09 14:00:00 29 7 Este 12 Este 0 -- -- 39
2020-09-09 13:00:00 27.6 8 Sudeste 14 Este 0 -- -- 41
2020-09-09 12:00:00 25.9 5 Sudoeste 14 Sur 0 -- -- 46
2020-09-09 11:00:00 24 5 Sur 11 Sur 0 -- -- 53
2020-09-09 10:00:00 21.3 5 Sudeste 9 Sudeste 0 -- -- 61
2020-09-09 09:00:00 18.2 5 Sur 6 Sur 0 -- -- 54
2020-09-09 08:00:00 16.7 6 Sudeste 6 Sudeste 0 -- -- 49
2020-09-09 07:00:00 15.9 4 Sur 8 Sur 0 -- -- 45
2020-09-09 06:00:00 16.2 6 Sudoeste 11 Sudoeste 0 -- -- 43
2020-09-09 05:00:00 17.3 6 Sudoeste 11 Sur 0 -- -- 40
2020-09-09 04:00:00 18.3 6 Sudoeste 15 Sur 0 -- -- 38
2020-09-09 03:00:00 19.1 6 Noroeste 17 Sudoeste 0 -- -- 38
2020-09-09 02:00:00 20.7 10 Este 14 Este 0 -- -- 39
2020-09-09 01:00:00 22.1 9 Este 14 Nordeste 0 -- -- 36
2020-09-09 00:00:00 23 5 Sudeste 8 Este 0 -- -- 33
2020-09-08 23:00:00 23.6 8 Este 13 Este 0 -- -- 33
2020-09-08 22:00:00 24.6 9 Este 17 Nordeste 0 -- -- 30
2020-09-08 21:00:00 26.6 10 Este 26 Nordeste 0 -- -- 28
2020-09-08 20:00:00 28.5 17 Nordeste 28 Este 0 -- -- 26
2020-09-08 19:00:00 30.1 18 Este 29 Este 0 -- -- 26
2020-09-08 18:00:00 31.1 17 Nordeste 28 Nordeste 0 -- -- 25
2020-09-08 17:00:00 31.5 17 Nordeste 29 Nordeste 0 -- -- 24
2020-09-08 16:00:00 31.5 11 Este 24 Este 0 -- -- 25
2020-09-08 15:00:00 30.9 13 Sudeste 26 Este 0 -- -- 21
2020-09-08 14:00:00 29.7 15 Este 27 Este 0 -- -- 26
2020-09-08 13:00:00 28.3 13 Sudeste 23 Sudeste 0 -- -- 29
2020-09-08 12:00:00 26.5 15 Sudeste 27 Sudeste 0 -- -- 35
2020-09-08 11:00:00 24.5 17 Sudeste 28 Este 0 -- -- 43
2020-09-08 10:00:00 22.2 15 Sudeste 24 Sudeste 0 -- -- 42
2020-09-08 09:00:00 19.1 12 Sudeste 18 Este 0 -- -- 38
2020-09-08 08:00:00 18.3 13 Este 19 Este 0 -- -- 33
2020-09-08 07:00:00 18.3 9 Sudeste 16 Sudeste 0 -- -- 32
2020-09-08 06:00:00 18.5 12 Este 16 Sudeste 0 -- -- 36
2020-09-08 05:00:00 19 10 Este 14 Este 0 -- -- 41
2020-09-08 04:00:00 20.7 9 Este 16 Este 0 -- -- 34
2020-09-08 03:00:00 21.7 10 Sudeste 13 Sudeste 0 -- -- 30
2020-09-08 02:00:00 22.6 9 Sudeste 14 Este 0 -- -- 32
2020-09-08 01:00:00 23.9 10 Este 19 Este 0 -- -- 34
2020-09-08 00:00:00 25.5 13 Este 19 Este 0 -- -- 30
2020-09-07 23:00:00 26.5 11 Este 16 Nordeste 0 -- -- 28
2020-09-07 22:00:00 27.5 10 Este 15 Nordeste 0 -- -- 26
2020-09-07 21:00:00 29.8 10 Nordeste 26 Nordeste 0 -- -- 24
2020-09-07 20:00:00 32.1 14 Nordeste 35 Nordeste 0 -- -- 23
2020-09-07 19:00:00 33.6 21 Nordeste 36 Norte 0 -- -- 23
2020-09-07 18:00:00 34.7 14 Norte 32 Norte 0 -- -- 22
2020-09-07 17:00:00 35.1 16 Norte 35 Norte 0 -- -- 22
2020-09-07 16:00:00 34.8 17 Norte 31 Norte 0 -- -- 24
2020-09-07 15:00:00 34.5 16 Norte 27 Norte 0 -- -- 25
2020-09-07 14:00:00 33 10 Nordeste 24 Nordeste 0 -- -- 28
2020-09-07 13:00:00 31.5 9 Nordeste 18 Norte 0 -- -- 30
2020-09-07 12:00:00 29.1 8 Norte 14 Norte 0 -- -- 35
2020-09-07 11:00:00 27.5 9 Norte 14 Noroeste 0 -- -- 37
2020-09-07 10:00:00 24.8 9 Noroeste 14 Noroeste 0 -- -- 44
2020-09-07 09:00:00 22.3 5 Noroeste 9 Norte 0 -- -- 49
2020-09-07 08:00:00 21.2 5 Norte 8 Noroeste 0 -- -- 51
2020-09-07 07:00:00 21.5 6 Noroeste 7 Noroeste 0 -- -- 48
2020-09-07 06:00:00 21.1 3 Noroeste 8 Noroeste 0 -- -- 44
2020-09-07 05:00:00 23.2 4 Noroeste 9 Noroeste 0 -- -- 44
2020-09-07 04:00:00 23.6 6 Noroeste 11 Noroeste 0 -- -- 41
2020-09-07 03:00:00 24 10 Norte 14 Noroeste 0 -- -- 37
2020-09-07 02:00:00 24.2 10 Oeste 17 Oeste 0 -- -- 30
2020-09-07 01:00:00 26.9 5 Noroeste 10 Noroeste 0 -- -- 26
2020-09-07 00:00:00 29.1 6 Noroeste 10 Noroeste 0 -- -- 24
2020-09-06 23:00:00 29.6 5 Noroeste 9 Noroeste 0 -- -- 24
2020-09-06 22:00:00 29.9 6 Noroeste 9 Norte 0 -- -- 25
2020-09-06 21:00:00 31.5 4 Norte 9 Nordeste 0 -- -- 23
2020-09-06 20:00:00 33.5 7 Nordeste 17 Nordeste 0 -- -- 20
2020-09-06 19:00:00 34.8 9 Nordeste 23 Norte 0 -- -- 18
2020-09-06 18:00:00 35.6 12 Norte 24 Este 0 -- -- 18
2020-09-06 17:00:00 35.6 10 Norte 23 Norte 0 -- -- 20
2020-09-06 16:00:00 35.5 10 Norte 18 Norte 0 -- -- 22
2020-09-06 15:00:00 34.4 8 Norte 19 Norte 0 -- -- 26
2020-09-06 14:00:00 33.2 5 Noroeste 17 Norte 0 -- -- 27
2020-09-06 13:00:00 31.1 6 Nordeste 18 Norte 0 -- -- 30
2020-09-06 12:00:00 28.8 5 Nordeste 13 Nordeste 0 -- -- 34
2020-09-06 11:00:00 26.7 6 Nordeste 12 Nordeste 0 -- -- 38
2020-09-06 10:00:00 23.6 6 Sur 14 Sur 0 -- -- 46
2020-09-06 09:00:00 20.7 6 Sur 18 Sur 0 -- -- 49
2020-09-06 08:00:00 19 15 Sur 22 Sur 0 -- -- 46
2020-09-06 07:00:00 19.5 15 Sur 17 Sur 0 -- -- 40
2020-09-06 06:00:00 20.2 10 Sur 17 Sur 0 -- -- 34
2020-09-06 05:00:00 21.7 3 Sur 9 Sur 0 -- -- 32
2020-09-06 04:00:00 24 8 Noroeste 12 Noroeste 0 -- -- 31
2020-09-06 03:00:00 24 11 Oeste 18 Noroeste 0 -- -- 28
2020-09-06 02:00:00 24 13 Sudoeste 25 Sur 0 -- -- 28
2020-09-06 01:00:00 27.4 4 Noroeste 8 Norte 0 -- -- 24
2020-09-06 00:00:00 27.5 6 Norte 8 Norte 0 -- -- 25
2020-09-05 23:00:00 28.3 7 Norte 9 Noroeste 0 -- -- 25
2020-09-05 22:00:00 28.8 8 Noroeste 11 Noroeste 0 -- -- 25
2020-09-05 21:00:00 30.3 7 Nordeste 14 Nordeste 0 -- -- 25
2020-09-05 20:00:00 33 4 Nordeste 22 Norte 0 -- -- 21
2020-09-05 19:00:00 34.7 6 Noroeste 25 Norte 0 -- -- 21
2020-09-05 18:00:00 34.9 12 Norte 31 Noroeste 0 -- -- 22
2020-09-05 17:00:00 35.5 9 Norte 28 Noroeste 0 -- -- 23
2020-09-05 16:00:00 35.1 12 Norte 27 Nordeste 0 -- -- 24
2020-09-05 15:00:00 34.4 13 Norte 21 Norte 0 -- -- 26
2020-09-05 14:00:00 33.1 6 Norte 13 Este 0 -- -- 27
2020-09-05 13:00:00 32.1 5 Sur 12 Sudeste 0 -- -- 28
2020-09-05 12:00:00 29.7 6 Este 12 Este 0 -- -- 34
2020-09-05 11:00:00 26.5 6 Sudeste 14 Sudeste 0 -- -- 41
2020-09-05 10:00:00 23 9 Sudeste 15 Sur 0 -- -- 49
2020-09-05 09:00:00 19.6 10 Sur 16 Sur 0 -- -- 52
2020-09-05 08:00:00 18.2 12 Sur 18 Sur 0 -- -- 50
2020-09-05 07:00:00 19 13 Sur 17 Sur 0 -- -- 43
2020-09-05 06:00:00 19.9 13 Sur 17 Sur 0 -- -- 40
2020-09-05 05:00:00 21.2 12 Sur 17 Sur 0 -- -- 36
2020-09-05 04:00:00 21.7 9 Sur 13 Sur 0 -- -- 34
2020-09-05 03:00:00 22.7 11 Sur 14 Sur 0 -- -- 33
2020-09-05 02:00:00 23.3 7 Sudeste 12 Sudoeste 0 -- -- 33
2020-09-05 01:00:00 25.6 9 Oeste 19 Sudoeste 0 -- -- 29
2020-09-05 00:00:00 26.1 13 Sudoeste 21 Sudoeste 0 -- -- 30
2020-09-04 23:00:00 26.7 9 Nordeste 10 Nordeste 0 -- -- 30
2020-09-04 22:00:00 27.8 9 Nordeste 12 Nordeste 0 -- -- 29
2020-09-04 21:00:00 30.3 7 Nordeste 13 Nordeste 0 -- -- 26
2020-09-04 20:00:00 32.9 6 Nordeste 15 Nordeste 0 -- -- 24
2020-09-04 19:00:00 34 12 Este 20 Nordeste 0 -- -- 23
2020-09-04 18:00:00 34.2 6 Nordeste 24 Este 0 -- -- 24
2020-09-04 17:00:00 34.5 9 Este 28 Este 0 -- -- 24
2020-09-04 16:00:00 34.2 6 Este 28 Nordeste 0 -- -- 25
2020-09-04 15:00:00 33.4 10 Este 26 Nordeste 0 -- -- 27
2020-09-04 14:00:00 32 11 Este 24 Sudeste 0 -- -- 31
2020-09-04 13:00:00 30.8 8 Sudeste 20 Este 0 -- -- 32
2020-09-04 12:00:00 28.3 10 Sudeste 18 Sudeste 0 -- -- 38
2020-09-04 11:00:00 25.8 9 Sudeste 15 Sudeste 0 -- -- 42
2020-09-04 10:00:00 23.7 9 Sudeste 13 Sur 0 -- -- 45
2020-09-04 09:00:00 20.7 8 Sur 12 Sur 0 -- -- 48
2020-09-04 08:00:00 19 11 Sur 16 Sur 0 -- -- 48
2020-09-04 07:00:00 19.7 14 Sur 18 Sur 0 -- -- 47
2020-09-04 06:00:00 20.2 11 Sur 16 Sur 0 -- -- 45
2020-09-04 05:00:00 20.8 12 Sur 17 Sur 0 -- -- 42
2020-09-04 04:00:00 21.6 11 Sur 18 Sur 0 -- -- 40
2020-09-04 03:00:00 22.5 11 Sur 19 Sur 0 -- -- 38
2020-09-04 02:00:00 23.5 12 Sur 17 Sur 0 -- -- 36
2020-09-04 01:00:00 24.3 12 Sur 18 Sudoeste 0 -- -- 33
2020-09-04 00:00:00 26.1 15 Sudoeste 21 Sudoeste 0 -- -- 30
2020-09-03 23:00:00 26.9 10 Este 24 Sur 0 -- -- 25
2020-09-03 22:00:00 28 10 Este 13 Nordeste 0 -- -- 23
2020-09-03 21:00:00 30.3 10 Este 22 Nordeste 0 -- -- 20
2020-09-03 20:00:00 32.6 15 Este 27 Nordeste 0 -- -- 20
2020-09-03 19:00:00 33.9 17 Este 26 Este 0 -- -- 19
2020-09-03 18:00:00 34.6 16 Este 38 Este 0 -- -- 20
2020-09-03 17:00:00 35 18 Este 30 Este 0 -- -- 20
2020-09-03 16:00:00 34.9 11 Nordeste 24 Nordeste 0 -- -- 20
2020-09-03 15:00:00 34.4 5 Norte 22 Norte 0 -- -- 19
2020-09-03 14:00:00 33.6 6 Sudoeste 22 Sudoeste 0 -- -- 21
2020-09-03 13:00:00 32.2 8 Sudeste 18 Sudeste 0 -- -- 22
2020-09-03 12:00:00 30.1 10 Sur 19 Sur 0 -- -- 28
2020-09-03 11:00:00 26.9 9 Sur 15 Sur 0 -- -- 32
2020-09-03 10:00:00 22.3 10 Sudeste 16 Sur 0 -- -- 37
2020-09-03 09:00:00 18.4 11 Sur 16 Sur 0 -- -- 40
2020-09-03 08:00:00 16.9 13 Sur 17 Sur 0 -- -- 41
2020-09-03 07:00:00 18.7 9 Sur 18 Sudoeste 0 -- -- 36
2020-09-03 06:00:00 19.2 8 Sur 11 Sudoeste 0 -- -- 37
2020-09-03 05:00:00 19.2 9 Sudeste 12 Este 0 -- -- 38
2020-09-03 04:00:00 20.7 5 Oeste 12 Oeste 0 -- -- 35
2020-09-03 03:00:00 20.2 9 Oeste 12 Sudoeste 0 -- -- 38
2020-09-03 02:00:00 20.8 8 Sur 15 Sur 0 -- -- 31
2020-09-03 01:00:00 22.9 4 Sudoeste 10 Oeste 0 -- -- 26
2020-09-03 00:00:00 23.6 8 Sudoeste 20 Sudoeste 0 -- -- 26
2020-09-02 23:00:00 24.9 10 Nordeste 12 Nordeste 0 -- -- 25
2020-09-02 22:00:00 26.1 9 Nordeste 12 Este 0 -- -- 24
2020-09-02 21:00:00 28.5 8 Este 21 Este 0 -- -- 22
2020-09-02 20:00:00 31 13 Este 24 Nordeste 0 -- -- 21
2020-09-02 19:00:00 32.6 14 Este 25 Nordeste 0 -- -- 20
2020-09-02 18:00:00 32.7 14 Norte 25 Norte 0 -- -- 20
2020-09-02 17:00:00 33.2 10 Este 22 Sudeste 0 -- -- 21
2020-09-02 16:00:00 32.9 8 Este 19 Oeste 0 -- -- 20
2020-09-02 15:00:00 32.3 10 Este 19 Sur 0 -- -- 20
2020-09-02 14:00:00 30.6 7 Sur 16 Sudeste 0 -- -- 25
2020-09-02 13:00:00 28.3 4 Este 13 Sudeste 0 -- -- 34
2020-09-02 12:00:00 25.5 6 Sudeste 13 Este 0 -- -- 40
2020-09-02 11:00:00 22.8 3 Sur 6 Sur 0 -- -- 49
2020-09-02 10:00:00 19.2 4 Sur 7 Sudeste 0 -- -- 59
2020-09-02 09:00:00 16.7 2 Este 6 Noroeste 0 -- -- 67
2020-09-02 08:00:00 14.1 2 Noroeste 4 Noroeste 0 -- -- 70
2020-09-02 07:00:00 15.1 2 Oeste 6 Noroeste 0 -- -- 68
2020-09-02 06:00:00 16 3 Nordeste 12 Noroeste 0 -- -- 60
2020-09-02 05:00:00 17.2 8 Noroeste 11 Noroeste 0 -- -- 62
2020-09-02 04:00:00 17.9 8 Noroeste 17 Noroeste 0 -- -- 61
2020-09-02 03:00:00 19.2 13 Noroeste 19 Noroeste 0 -- -- 58
2020-09-02 02:00:00 20.1 13 Noroeste 27 Noroeste 0 -- -- 56
2020-09-02 01:00:00 21.6 15 Noroeste 30 Noroeste 0 -- -- 52
2020-09-02 00:00:00 23.1 20 Noroeste 31 Noroeste 0 -- -- 46
2020-09-01 23:00:00 24.9 22 Noroeste 36 Noroeste 0 -- -- 40
2020-09-01 22:00:00 26.4 17 Noroeste 30 Noroeste 0 -- -- 34
2020-09-01 21:00:00 28.1 7 Noroeste 19 Noroeste 0 -- -- 18
2020-09-01 20:00:00 29.7 13 Norte 29 Noroeste 0 -- -- 17
2020-09-01 19:00:00 31.1 14 Noroeste 33 Noroeste 0 -- -- 15
2020-09-01 18:00:00 32 14 Noroeste 34 Noroeste 0 -- -- 15
2020-09-01 17:00:00 32.1 13 Noroeste 28 Noroeste 0 -- -- 15
2020-09-01 16:00:00 31.4 12 Norte 25 Norte 0 -- -- 17
2020-09-01 15:00:00 30.3 10 Norte 21 Norte 0 -- -- 17
2020-09-01 14:00:00 30.5 11 Norte 22 Norte 0 -- -- 18
2020-09-01 13:00:00 29.6 4 Oeste 17 Noroeste 0 -- -- 20
2020-09-01 12:00:00 26.3 3 Este 7 Este 0 -- -- 24
2020-09-01 11:00:00 23.9 4 Este 10 Norte 0 -- -- 26
2020-09-01 10:00:00 20 4 Noroeste 14 Oeste 0 -- -- 31
2020-09-01 09:00:00 17.8 5 Sur 11 Sudoeste 0 -- -- 34
2020-09-01 08:00:00 17.4 7 Sudoeste 14 Sudoeste 0 -- -- 32
2020-09-01 07:00:00 17.1 3 Este 15 Norte 0 -- -- 34
2020-09-01 06:00:00 17.1 5 Norte 14 Norte 0 -- -- 32
2020-09-01 05:00:00 18.6 2 Noroeste 14 Sudoeste 0 -- -- 28
2020-09-01 04:00:00 19.8 12 Sur 13 Sur 0 -- -- 28
2020-09-01 03:00:00 19.7 12 Sudoeste 14 Sudoeste 0 -- -- 27
2020-09-01 02:00:00 19.1 9 Sur 10 Sur 0 -- -- 29
2020-09-01 01:00:00 20.7 8 Este 12 Este 0 -- -- 30
2020-09-01 00:00:00 21.1 6 Este 12 Nordeste 0 -- -- 26
2020-08-31 23:00:00 23.6 3 Norte 9 Nordeste 0 -- -- 25
2020-08-31 22:00:00 23.6 8 Nordeste 13 Nordeste 0 -- -- 22
2020-08-31 21:00:00 26.1 7 Nordeste 20 Nordeste 0 -- -- 19
2020-08-31 20:00:00 29 12 Este 23 Este 0 -- -- 19
2020-08-31 19:00:00 30.5 13 Nordeste 21 Nordeste 0 -- -- 18
2020-08-31 18:00:00 31 11 Nordeste 20 Este 0 -- -- 18
2020-08-31 17:00:00 30.9 11 Este 22 Nordeste 0 -- -- 18
2020-08-31 16:00:00 30.9 9 Este 21 Este 0 -- -- 18
2020-08-31 15:00:00 30.3 12 Este 23 Este 0 -- -- 19
2020-08-31 14:00:00 29.3 10 Sudeste 23 Sur 0 -- -- 19
2020-08-31 13:00:00 27.4 10 Sudeste 18 Sudeste 0 -- -- 22
2020-08-31 12:00:00 25.3 8 Este 18 Este 0 -- -- 25
2020-08-31 11:00:00 22.4 8 Este 15 Este 0 -- -- 31
2020-08-31 10:00:00 18.5 9 Este 13 Este 0 -- -- 38
2020-08-31 09:00:00 15.2 8 Sudeste 11 Sudeste 0 -- -- 47
2020-08-31 08:00:00 13.8 8 Sudeste 12 Sudeste 0 -- -- 38
2020-08-31 07:00:00 13.3 7 Sur 13 Este 0 -- -- 42
2020-08-31 06:00:00 14.9 10 Este 15 Este 0 -- -- 46
2020-08-31 05:00:00 15.5 10 Este 13 Este 0 -- -- 42
2020-08-31 04:00:00 16.6 8 Sudeste 10 Este 0 -- -- 33
2020-08-31 03:00:00 16.6 6 Sur 11 Este 0 -- -- 34
2020-08-31 02:00:00 18.5 10 Este 12 Este 0 -- -- 32
2020-08-31 01:00:00 19.8 10 Este 13 Este 0 -- -- 30
2020-08-31 00:00:00 20 10 Este 14 Nordeste 0 -- -- 30
2020-08-30 23:00:00 21.5 10 Nordeste 16 Nordeste 0 -- -- 29
2020-08-30 22:00:00 22.8 10 Nordeste 19 Nordeste 0 -- -- 28
2020-08-30 21:00:00 24.8 9 Este 18 Este 0 -- -- 27
2020-08-30 20:00:00 26.7 14 Nordeste 23 Nordeste 0 -- -- 24
2020-08-30 19:00:00 27.7 9 Nordeste 30 Nordeste 0 -- -- 20
2020-08-30 18:00:00 28 6 Este 25 Nordeste 0 -- -- 21
2020-08-30 17:00:00 27.8 12 Nordeste 24 Este 0 -- -- 23
2020-08-30 16:00:00 27.7 13 Norte 24 Nordeste 0 -- -- 24
2020-08-30 15:00:00 27.1 11 Norte 34 Sudeste 0 -- -- 25
2020-08-30 14:00:00 26.3 8 Este 21 Nordeste 0 -- -- 26
2020-08-30 13:00:00 25.4 6 Nordeste 17 Sudeste 0 -- -- 30
2020-08-30 12:00:00 23.3 8 Sudeste 19 Sudeste 0 -- -- 34
2020-08-30 11:00:00 21.3 9 Este 18 Este 0 -- -- 40
2020-08-30 10:00:00 18.8 4 Este 8 Este 0 -- -- 47
2020-08-30 09:00:00 15.3 6 Noroeste 9 Noroeste 0 -- -- 56
2020-08-30 08:00:00 14.3 6 Noroeste 12 Noroeste 0 -- -- 58
2020-08-30 07:00:00 14.5 6 Noroeste 11 Noroeste 0 -- -- 59
2020-08-30 06:00:00 15.2 6 Noroeste 12 Noroeste 0 -- -- 56
2020-08-30 05:00:00 15.5 11 Noroeste 14 Noroeste 0 -- -- 50
2020-08-30 04:00:00 15.5 9 Oeste 13 Oeste 0 -- -- 46
2020-08-30 03:00:00 17.5 6 Norte 18 Nordeste 0 -- -- 45
2020-08-30 02:00:00 18.5 13 Nordeste 22 Norte 0 -- -- 42
2020-08-30 01:00:00 19.4 9 Norte 20 Nordeste 0 -- -- 39
2020-08-30 00:00:00 20.7 13 Nordeste 28 Nordeste 0 -- -- 35
2020-08-29 23:00:00 20.4 14 Nordeste 20 Nordeste 0 -- -- 33
2020-08-29 22:00:00 22 10 Nordeste 25 Nordeste 0 -- -- 30
2020-08-29 21:00:00 23.7 16 Nordeste 30 Nordeste 0 -- -- 29
2020-08-29 20:00:00 25.3 20 Nordeste 39 Norte 0 -- -- 27
2020-08-29 19:00:00 26.1 21 Nordeste 40 Norte 0 -- -- 26
2020-08-29 18:00:00 26.5 24 Norte 46 Norte 0 -- -- 24
2020-08-29 17:00:00 26.3 23 Norte 43 Norte 0 -- -- 25
2020-08-29 16:00:00 26.1 24 Norte 41 Nordeste 0 -- -- 26
2020-08-29 15:00:00 25.5 19 Nordeste 36 Norte 0 -- -- 29
2020-08-29 14:00:00 24.6 18 Norte 36 Norte 0 -- -- 31
2020-08-29 13:00:00 23.6 22 Norte 39 Nordeste 0 -- -- 34
2020-08-29 12:00:00 21.9 24 Norte 39 Nordeste 0 -- -- 38
2020-08-29 11:00:00 18.8 26 Norte 40 Norte 0 -- -- 44
2020-08-29 10:00:00 16.6 25 Norte 35 Norte 0 -- -- 53
2020-08-29 09:00:00 14.8 22 Noroeste 31 Noroeste 0 -- -- 62
2020-08-29 08:00:00 13.6 16 Noroeste 28 Noroeste 0 -- -- 67
2020-08-29 07:00:00 13.9 18 Noroeste 25 Noroeste 0 -- -- 69
2020-08-29 06:00:00 14.4 17 Noroeste 29 Noroeste 0 -- -- 66
2020-08-29 05:00:00 15 15 Noroeste 28 Noroeste 0 -- -- 63
2020-08-29 04:00:00 15.7 18 Noroeste 31 Noroeste 0 -- -- 62
2020-08-29 03:00:00 16.4 13 Noroeste 31 Noroeste 0 -- -- 59
2020-08-29 02:00:00 17 20 Noroeste 34 Noroeste 0 -- -- 55
2020-08-29 01:00:00 18 19 Noroeste 36 Noroeste 0 -- -- 50
2020-08-29 00:00:00 19.3 20 Noroeste 38 Noroeste 0 -- -- 46
2020-08-28 23:00:00 20.9 23 Noroeste 37 Noroeste 0 -- -- 43
2020-08-28 22:00:00 22.8 22 Noroeste 40 Noroeste 0 -- -- 36
2020-08-28 21:00:00 24.7 22 Noroeste 42 Noroeste 0 -- -- 27
2020-08-28 20:00:00 27.4 26 Noroeste 42 Noroeste 0 -- -- 24
2020-08-28 19:00:00 29.3 28 Noroeste 45 Noroeste 0 -- -- 18
2020-08-28 18:00:00 30.8 26 Noroeste 45 Noroeste 0 -- -- 17
2020-08-28 17:00:00 31.4 26 Noroeste 46 Noroeste 0 -- -- 19
2020-08-28 16:00:00 31.6 26 Noroeste 49 Noroeste 0 -- -- 31
2020-08-28 15:00:00 30.6 26 Noroeste 41 Noroeste 0 -- -- 37
2020-08-28 14:00:00 29.2 22 Noroeste 36 Norte 0 -- -- 42
2020-08-28 13:00:00 27.9 24 Noroeste 40 Noroeste 0 -- -- 47
2020-08-28 12:00:00 26.8 21 Norte 33 Noroeste 0 -- -- 49
2020-08-28 11:00:00 24 22 Noroeste 32 Noroeste 0 -- -- 58
2020-08-28 10:00:00 21.4 18 Noroeste 29 Noroeste 0 -- -- 69
2020-08-28 09:00:00 19 13 Noroeste 21 Noroeste 0 -- -- 79
2020-08-28 08:00:00 17.9 10 Noroeste 21 Noroeste 0 -- -- 84
2020-08-28 07:00:00 18.2 13 Noroeste 27 Noroeste 0 -- -- 83
2020-08-28 06:00:00 18.6 12 Noroeste 29 Noroeste 0 -- -- 82
2020-08-28 05:00:00 19.1 19 Noroeste 30 Noroeste 0 -- -- 80
2020-08-28 04:00:00 19.9 12 Noroeste 32 Noroeste 0 -- -- 78
2020-08-28 03:00:00 21 21 Noroeste 34 Noroeste 0 -- -- 74
2020-08-28 02:00:00 22.4 18 Noroeste 30 Noroeste 0 -- -- 69
2020-08-28 01:00:00 23.7 19 Noroeste 35 Noroeste 0 -- -- 65
2020-08-28 00:00:00 25.8 19 Noroeste 37 Noroeste 0 -- -- 56
2020-08-27 23:00:00 27.5 24 Noroeste 41 Noroeste 0 -- -- 49
2020-08-27 22:00:00 29.6 29 Noroeste 42 Noroeste 0 -- -- 44
2020-08-27 21:00:00 32.2 23 Noroeste 39 Noroeste 0 -- -- 33
2020-08-27 20:00:00 34.7 19 Noroeste 30 Noroeste 0 -- -- 30
2020-08-27 19:00:00 36 14 Norte 27 Norte 0 -- -- 26
2020-08-27 18:00:00 36.2 15 Noroeste 30 Noroeste 0 -- -- 22
2020-08-27 17:00:00 36.4 14 Noroeste 29 Norte 0 -- -- 26
2020-08-27 16:00:00 36.1 13 Noroeste 23 Noroeste 0 -- -- 24
2020-08-27 15:00:00 34.9 10 Noroeste 24 Noroeste 0 -- -- 28
2020-08-27 14:00:00 32.9 12 Noroeste 22 Noroeste 0 -- -- 37
2020-08-27 13:00:00 30.8 10 Noroeste 19 Noroeste 0 -- -- 44
2020-08-27 12:00:00 29.1 12 Noroeste 21 Norte 0 -- -- 49
2020-08-27 11:00:00 26.2 6 Noroeste 15 Noroeste 0 -- -- 56
2020-08-27 10:00:00 23.4 10 Noroeste 22 Noroeste 0 -- -- 65
2020-08-27 09:00:00 20.7 7 Noroeste 12 Noroeste 0 -- -- 69
2020-08-27 08:00:00 20.2 3 Noroeste 10 Noroeste 0 -- -- 66
2020-08-27 07:00:00 21.1 8 Noroeste 9 Noroeste 0 -- -- 66
2020-08-27 06:00:00 21.1 0 Calma 8 Noroeste 0 -- -- 55
2020-08-27 05:00:00 22.8 5 Noroeste 8 Noroeste 0 -- -- 56
2020-08-27 04:00:00 23.2 3 Oeste 11 Noroeste 0 -- -- 51
2020-08-27 03:00:00 24.9 5 Noroeste 16 Noroeste 0 -- -- 47
2020-08-27 02:00:00 26 12 Noroeste 18 Noroeste 0 -- -- 42
2020-08-27 01:00:00 27.1 11 Noroeste 19 Noroeste 0 -- -- 38
2020-08-27 00:00:00 28.3 11 Noroeste 19 Noroeste 0 -- -- 29
2020-08-26 23:00:00 29.3 11 Noroeste 14 Noroeste 0 -- -- 25
2020-08-26 22:00:00 30.8 9 Noroeste 16 Noroeste 0 -- -- 23
2020-08-26 21:00:00 33.4 12 Noroeste 27 Noroeste 0 -- -- 20
2020-08-26 20:00:00 36.1 17 Noroeste 36 Norte 0 -- -- 18
2020-08-26 19:00:00 37.7 17 Noroeste 31 Norte 0 -- -- 13
2020-08-26 18:00:00 38.3 17 Noroeste 34 Noroeste 0 -- -- 16
2020-08-26 17:00:00 37.6 13 Noroeste 32 Noroeste 0 -- -- 19
2020-08-26 16:00:00 37.2 18 Oeste 32 Oeste 0 -- -- 23
2020-08-26 15:00:00 36.8 14 Noroeste 26 Oeste 0 -- -- 23
2020-08-26 14:00:00 35.9 15 Noroeste 27 Noroeste 0 -- -- 23
2020-08-26 13:00:00 35.2 10 Noroeste 18 Noroeste 0 -- -- 22
2020-08-26 12:00:00 34 7 Norte 14 Norte 0 -- -- 20
2020-08-26 11:00:00 30.9 4 Sur 10 Sur 0 -- -- 22
2020-08-26 10:00:00 26.1 7 Sur 10 Sur 0 -- -- 28
2020-08-26 09:00:00 22.3 5 Sur 9 Sur 0 -- -- 34
2020-08-26 08:00:00 19 10 Sur 11 Sur 0 -- -- 38
2020-08-26 07:00:00 19.7 3 Este 4 Este 0 -- -- 40
2020-08-26 06:00:00 20.9 0 Calma 9 Oeste 0 -- -- 38
2020-08-26 05:00:00 22.2 10 Oeste 11 Oeste 0 -- -- 36
2020-08-26 04:00:00 22.2 9 Oeste 10 Oeste 0 -- -- 39
2020-08-26 03:00:00 24.4 9 Oeste 16 Noroeste 0 -- -- 37
2020-08-26 02:00:00 25.6 10 Noroeste 21 Noroeste 0 -- -- 35
2020-08-26 01:00:00 26.9 13 Noroeste 23 Noroeste 0 -- -- 33
2020-08-26 00:00:00 28.3 13 Noroeste 20 Noroeste 0 -- -- 28
2020-08-25 23:00:00 29.7 10 Noroeste 17 Noroeste 0 -- -- 28
2020-08-25 22:00:00 31 8 Norte 14 Nordeste 0 -- -- 25
2020-08-25 21:00:00 33.5 12 Norte 22 Nordeste 0 -- -- 22
2020-08-25 20:00:00 35.6 13 Nordeste 29 Norte 0 -- -- 21
2020-08-25 19:00:00 36.8 14 Nordeste 28 Norte 0 -- -- 21
2020-08-25 18:00:00 37.6 13 Norte 25 Oeste 0 -- -- 22
2020-08-25 17:00:00 37.4 14 Nordeste 27 Norte 0 -- -- 22
2020-08-25 16:00:00 37.4 8 Norte 25 Noroeste 0 -- -- 21
2020-08-25 15:00:00 36.4 12 Norte 27 Norte 0 -- -- 23
2020-08-25 14:00:00 35.5 12 Norte 24 Noroeste 0 -- -- 24
2020-08-25 13:00:00 34.6 6 Norte 15 Norte 0 -- -- 27
2020-08-25 12:00:00 32.6 4 Sudoeste 8 Sur 0 -- -- 30
2020-08-25 11:00:00 30.1 5 Sur 12 Sudoeste 0 -- -- 34
2020-08-25 10:00:00 26.8 2 Sudoeste 10 Sudoeste 0 -- -- 38
2020-08-25 09:00:00 21.6 7 Sudoeste 11 Sudoeste 0 -- -- 48
2020-08-25 08:00:00 20 9 Sudoeste 11 Sur 0 -- -- 47
2020-08-25 07:00:00 20.9 7 Sur 9 Sur 0 -- -- 47
2020-08-25 06:00:00 22.3 2 Sudoeste 9 Noroeste 0 -- -- 43
2020-08-25 05:00:00 24.1 8 Noroeste 12 Noroeste 0 -- -- 42
2020-08-25 04:00:00 24.9 8 Noroeste 15 Oeste 0 -- -- 39
2020-08-25 03:00:00 25.4 9 Noroeste 14 Oeste 0 -- -- 38
2020-08-25 02:00:00 26.1 12 Oeste 17 Oeste 0 -- -- 33
2020-08-25 01:00:00 27.2 14 Oeste 26 Oeste 0 -- -- 27
2020-08-25 00:00:00 27 10 Sudoeste 14 Sudoeste 0 -- -- 24
2020-08-24 23:00:00 28 4 Sudeste 12 Norte 0 -- -- 23
2020-08-24 22:00:00 30.4 8 Norte 13 Norte 0 -- -- 21
2020-08-24 21:00:00 32.6 10 Nordeste 25 Nordeste 0 -- -- 20
2020-08-24 20:00:00 34.6 15 Norte 30 Norte 0 -- -- 21
2020-08-24 19:00:00 36.6 14 Norte 23 Nordeste 0 -- -- 18
2020-08-24 18:00:00 37.5 10 Noroeste 24 Norte 0 -- -- 16
2020-08-24 17:00:00 37.5 8 Noroeste 23 Noroeste 0 -- -- 16
2020-08-24 16:00:00 36.7 10 Noroeste 26 Oeste 0 -- -- 18
2020-08-24 15:00:00 36 7 Sudeste 23 Norte 0 -- -- 18
2020-08-24 14:00:00 34.4 8 Sur 17 Sur 0 -- -- 22
2020-08-24 13:00:00 31.9 5 Sudoeste 10 Sur 0 -- -- 28
2020-08-24 12:00:00 28.9 4 Sur 9 Sudeste 0 -- -- 35
2020-08-24 11:00:00 26.4 3 Este 6 Noroeste 0 -- -- 41
2020-08-24 10:00:00 23.1 3 Noroeste 6 Oeste 0 -- -- 50
2020-08-24 09:00:00 20.2 0 Calma 3 Oeste 0 -- -- 54
2020-08-24 08:00:00 17.2 4 Sudoeste 6 Sudoeste 0 -- -- 60
2020-08-24 07:00:00 19.5 4 Oeste 12 Noroeste 0 -- -- 54
2020-08-24 06:00:00 19.9 9 Noroeste 12 Noroeste 0 -- -- 55
2020-08-24 05:00:00 19.8 10 Noroeste 12 Oeste 0 -- -- 53
2020-08-24 04:00:00 20.3 10 Oeste 15 Noroeste 0 -- -- 51
2020-08-24 03:00:00 21.8 10 Noroeste 19 Noroeste 0 -- -- 50
2020-08-24 02:00:00 23.1 15 Noroeste 26 Noroeste 0 -- -- 50
2020-08-24 01:00:00 24.4 17 Noroeste 26 Noroeste 0 -- -- 48
2020-08-24 00:00:00 25.9 17 Noroeste 25 Noroeste 0 -- -- 42
2020-08-23 23:00:00 26.9 7 Noroeste 10 Noroeste 0 -- -- 24
2020-08-23 22:00:00 29.1 6 Noroeste 11 Noroeste 0 -- -- 22
2020-08-23 21:00:00 31.5 7 Noroeste 18 Norte 0 -- -- 21
2020-08-23 20:00:00 33.7 11 Norte 23 Norte 0 -- -- 18
2020-08-23 19:00:00 34.3 10 Norte 27 Norte 0 -- -- 18
2020-08-23 18:00:00 34.4 14 Norte 29 Norte 0 -- -- 18
2020-08-23 17:00:00 34.2 10 Noroeste 28 Norte 0 -- -- 20
2020-08-23 16:00:00 33.4 11 Noroeste 23 Nordeste 0 -- -- 21
2020-08-23 15:00:00 32.3 14 Norte 30 Norte 0 -- -- 26
2020-08-23 14:00:00 30.8 10 Norte 23 Norte 0 -- -- 27
2020-08-23 13:00:00 29.1 11 Norte 20 Norte 0 -- -- 30
2020-08-23 12:00:00 27.2 6 Noroeste 17 Noroeste 0 -- -- 34
2020-08-23 11:00:00 24.3 8 Norte 17 Noroeste 0 -- -- 43
2020-08-23 10:00:00 22.2 12 Noroeste 16 Noroeste 0 -- -- 49
2020-08-23 09:00:00 19.4 9 Noroeste 13 Noroeste 0 -- -- 56
2020-08-23 08:00:00 17.8 12 Noroeste 15 Noroeste 0 -- -- 59
2020-08-23 07:00:00 17.7 10 Noroeste 14 Noroeste 0 -- -- 59
2020-08-23 06:00:00 17.5 9 Oeste 12 Noroeste 0 -- -- 57
2020-08-23 05:00:00 18.9 7 Noroeste 18 Noroeste 0 -- -- 55
2020-08-23 04:00:00 20 12 Noroeste 15 Noroeste 0 -- -- 51
2020-08-23 03:00:00 20.9 8 Noroeste 15 Noroeste 0 -- -- 47
2020-08-23 02:00:00 22 10 Noroeste 20 Noroeste 0 -- -- 41
2020-08-23 01:00:00 23.3 12 Noroeste 19 Noroeste 0 -- -- 36
2020-08-23 00:00:00 25.1 13 Noroeste 21 Noroeste 0 -- -- 31
2020-08-22 23:00:00 27.2 7 Noroeste 12 Noroeste 0 -- -- 25
2020-08-22 22:00:00 28.1 9 Noroeste 12 Noroeste 0 -- -- 25
2020-08-22 21:00:00 30.2 9 Norte 18 Norte 0 -- -- 22
2020-08-22 20:00:00 32.3 8 Norte 29 Nordeste 0 -- -- 22
2020-08-22 19:00:00 32.9 11 Norte 23 Norte 0 -- -- 21
2020-08-22 18:00:00 33.3 14 Norte 24 Norte 0 -- -- 21
2020-08-22 17:00:00 32.9 8 Nordeste 22 Norte 0 -- -- 21
2020-08-22 16:00:00 32.1 12 Norte 23 Norte 0 -- -- 22
2020-08-22 15:00:00 30.9 8 Norte 22 Norte 0 -- -- 26
2020-08-22 14:00:00 29.7 7 Norte 23 Norte 0 -- -- 30
2020-08-22 13:00:00 28 6 Nordeste 17 Norte 0 -- -- 32
2020-08-22 12:00:00 25.8 5 Nordeste 14 Nordeste 0 -- -- 44
2020-08-22 11:00:00 23.2 6 Noroeste 12 Noroeste 0 -- -- 56
2020-08-22 10:00:00 20.3 5 Noroeste 16 Noroeste 0 -- -- 67
2020-08-22 09:00:00 18.4 11 Noroeste 15 Noroeste 0 -- -- 74
2020-08-22 08:00:00 17 10 Noroeste 14 Noroeste 0 -- -- 78
2020-08-22 07:00:00 17.6 8 Noroeste 14 Noroeste 0 -- -- 72
2020-08-22 06:00:00 17.6 8 Oeste 13 Oeste 0 -- -- 69
2020-08-22 05:00:00 18.4 8 Oeste 11 Oeste 0 -- -- 66
2020-08-22 04:00:00 19.3 9 Oeste 13 Oeste 0 -- -- 60
2020-08-22 03:00:00 20.7 5 Noroeste 17 Noroeste 0 -- -- 56
2020-08-22 02:00:00 21.9 11 Noroeste 18 Noroeste 0 -- -- 53
2020-08-22 01:00:00 22.9 6 Noroeste 16 Noroeste 0 -- -- 52
2020-08-22 00:00:00 23.8 6 Noroeste 18 Norte 0 -- -- 51
2020-08-21 23:00:00 24.8 12 Norte 30 Noroeste 0 -- -- 49
2020-08-21 22:00:00 26.5 17 Norte 29 Noroeste 0 -- -- 47
2020-08-21 21:00:00 28.3 19 Noroeste 32 Noroeste 0 -- -- 48
2020-08-21 20:00:00 30.1 15 Noroeste 33 Norte 0 -- -- 48
2020-08-21 19:00:00 31.6 21 Noroeste 36 Noroeste 0 -- -- 46
2020-08-21 18:00:00 31.3 18 Noroeste 41 Noroeste 0 -- -- 46
2020-08-21 17:00:00 31.4 18 Noroeste 35 Norte 0 -- -- 46
2020-08-21 16:00:00 31.5 15 Norte 52 Noroeste 0 -- -- 47
2020-08-21 15:00:00 30.1 14 Norte 28 Norte 0 -- -- 50
2020-08-21 14:00:00 30.9 6 Noroeste 29 Noroeste 0 -- -- 47
2020-08-21 13:00:00 29.5 9 Oeste 18 Oeste 0 -- -- 51
2020-08-21 12:00:00 26.7 4 Sudoeste 14 Noroeste 0 -- -- 59
2020-08-21 11:00:00 26.1 5 Norte 14 Noroeste 0 -- -- 62
2020-08-21 10:00:00 23.2 5 Sudoeste 14 Sudoeste 0 -- -- 73
2020-08-21 09:00:00 20.3 3 Sudoeste 9 Sudoeste 0 -- -- 82
2020-08-21 08:00:00 18.7 6 Sudoeste 8 Sudoeste 0 -- -- 86
2020-08-21 07:00:00 19.8 3 Oeste 8 Noroeste 0 -- -- 83
2020-08-21 06:00:00 20.8 4 Noroeste 15 Noroeste 0 -- -- 83
2020-08-21 05:00:00 21.2 9 Noroeste 21 Noroeste 0 -- -- 81
2020-08-21 04:00:00 21.5 8 Noroeste 21 Noroeste 0 -- -- 81
2020-08-21 03:00:00 22.3 12 Noroeste 23 Noroeste 0 -- -- 75
2020-08-21 02:00:00 23 10 Noroeste 22 Noroeste 0 -- -- 72
2020-08-21 01:00:00 23.7 11 Noroeste 32 Norte 0 -- -- 69
2020-08-21 00:00:00 24.7 21 Noroeste 40 Noroeste 0 -- -- 66